createdAt,value
2023-03-25T00:01:47.646Z,8.94
2023-03-25T00:04:17.872Z,8.89
2023-03-25T00:06:45.934Z,8.87
2023-03-25T00:09:14.068Z,8.90
2023-03-25T00:11:42.010Z,8.84
2023-03-25T00:14:12.315Z,8.85
2023-03-25T00:16:40.358Z,8.91
2023-03-25T00:19:09.321Z,8.88
2023-03-25T00:21:37.528Z,8.94
2023-03-25T00:24:05.656Z,8.93
2023-03-25T00:26:33.622Z,8.94
2023-03-25T00:29:01.525Z,8.99
2023-03-25T00:31:30.848Z,8.98
2023-03-25T00:33:59.798Z,9.00
2023-03-25T00:36:27.708Z,9.06
2023-03-25T00:38:55.745Z,9.10
2023-03-25T00:41:25.437Z,9.10
2023-03-25T00:43:54.502Z,9.12
2023-03-25T00:46:23.950Z,9.16
2023-03-25T00:48:53.443Z,9.18
2023-03-25T00:51:21.969Z,9.18
2023-03-25T00:53:53.328Z,9.16
2023-03-25T00:56:21.328Z,9.20
2023-03-25T00:58:49.278Z,9.24
2023-03-25T01:01:23.337Z,9.24
2023-03-25T01:03:57.848Z,9.31
2023-03-25T01:06:29.266Z,9.33
2023-03-25T01:08:57.903Z,9.30
2023-03-25T01:11:28.012Z,9.31
2023-03-25T01:13:56.600Z,9.33
2023-03-25T01:16:25.266Z,9.36
2023-03-25T01:18:55.028Z,9.37
2023-03-25T01:21:23.080Z,9.35
2023-03-25T01:23:51.040Z,9.32
2023-03-25T01:26:18.974Z,9.29
2023-03-25T01:28:47.099Z,9.26
2023-03-25T01:31:16.369Z,9.27
2023-03-25T01:33:44.311Z,9.27
2023-03-25T01:36:14.332Z,9.28
2023-03-25T01:38:42.963Z,9.33
2023-03-25T01:41:11.092Z,9.32
2023-03-25T01:43:39.051Z,9.34
2023-03-25T01:46:07.226Z,9.33
2023-03-25T01:48:37.873Z,9.32
2023-03-25T01:51:10.388Z,9.31
2023-03-25T01:53:40.399Z,9.26
2023-03-25T01:56:12.000Z,9.27
2023-03-25T01:58:39.929Z,9.28
2023-03-25T02:01:11.478Z,9.27
2023-03-25T02:03:40.158Z,9.26
2023-03-25T02:06:10.630Z,9.31
2023-03-25T02:08:41.680Z,9.28
2023-03-25T02:11:10.595Z,9.25
2023-03-25T02:13:40.432Z,9.27
2023-03-25T02:16:19.238Z,9.17
2023-03-25T02:18:54.859Z,9.15
2023-03-25T02:21:50.240Z,9.18
2023-03-25T02:24:46.572Z,9.22
2023-03-25T02:27:27.397Z,9.21
2023-03-25T02:30:31.040Z,9.19
2023-03-25T02:33:22.661Z,9.18
2023-03-25T02:36:12.186Z,9.15
2023-03-25T02:38:44.389Z,9.22
2023-03-25T02:41:15.587Z,9.22
2023-03-25T02:43:46.777Z,9.19
2023-03-25T02:46:18.171Z,9.19
2023-03-25T02:48:52.751Z,9.22
2023-03-25T02:51:24.609Z,9.24
2023-03-25T02:53:55.639Z,9.28
2023-03-25T02:56:25.619Z,9.26
2023-03-25T02:58:55.547Z,9.27
2023-03-25T03:01:27.087Z,9.24
2023-03-25T03:03:55.353Z,9.25
2023-03-25T03:06:24.487Z,9.25
2023-03-25T03:09:10.335Z,9.20
2023-03-25T03:11:44.770Z,9.15
2023-03-25T03:14:26.123Z,9.12
2023-03-25T03:17:03.541Z,9.15
2023-03-25T03:19:38.923Z,9.18
2023-03-25T03:22:16.952Z,9.17
2023-03-25T03:24:49.196Z,9.20
2023-03-25T03:27:25.226Z,9.21
2023-03-25T03:29:56.505Z,9.22
2023-03-25T03:32:29.009Z,9.22
2023-03-25T03:34:59.344Z,9.22
2023-03-25T03:37:29.764Z,9.22
2023-03-25T03:39:59.377Z,9.20
2023-03-25T03:42:30.828Z,9.22
2023-03-25T03:45:02.207Z,9.19
2023-03-25T03:47:32.846Z,9.21
2023-03-25T03:50:05.456Z,9.20
2023-03-25T03:52:37.653Z,9.24
2023-03-25T03:55:10.903Z,9.16
2023-03-25T03:57:41.929Z,9.20
2023-03-25T04:00:15.162Z,9.19
2023-03-25T04:02:44.557Z,9.23
2023-03-25T04:05:13.897Z,9.20
2023-03-25T04:07:44.867Z,9.17
2023-03-25T04:10:17.722Z,9.15
2023-03-25T04:12:47.562Z,9.07
2023-03-25T04:15:16.456Z,8.97
2023-03-25T04:17:44.722Z,8.89
2023-03-25T04:20:16.287Z,8.76
2023-03-25T04:22:45.696Z,8.74
2023-03-25T04:25:15.394Z,8.67
2023-03-25T04:27:49.186Z,8.64
2023-03-25T04:30:19.245Z,8.58
2023-03-25T04:32:47.841Z,8.58
2023-03-25T04:35:17.108Z,8.70
2023-03-25T04:37:46.153Z,8.70
2023-03-25T04:40:18.935Z,8.68
2023-03-25T04:42:47.491Z,8.59
2023-03-25T04:45:17.144Z,8.63
2023-03-25T04:47:47.170Z,8.62
2023-03-25T04:50:22.169Z,8.64
2023-03-25T04:52:50.526Z,8.60
2023-03-25T04:55:19.887Z,8.55
2023-03-25T04:57:48.625Z,8.45
2023-03-25T05:00:18.397Z,8.40
2023-03-25T05:02:47.074Z,8.42
2023-03-25T05:05:18.394Z,8.41
2023-03-25T05:07:47.233Z,8.43
2023-03-25T05:10:15.571Z,8.45
2023-03-25T05:12:44.913Z,8.47
2023-03-25T05:15:13.302Z,8.52
2023-03-25T05:17:44.035Z,8.41
2023-03-25T05:20:13.429Z,8.44
2023-03-25T05:22:42.012Z,8.42
2023-03-25T05:25:11.576Z,8.47
2023-03-25T05:27:39.957Z,8.42
2023-03-25T05:30:11.107Z,8.35
2023-03-25T05:32:41.424Z,8.40
2023-03-25T05:35:10.606Z,8.46
2023-03-25T05:37:38.937Z,8.40
2023-03-25T05:40:15.110Z,8.56
2023-03-25T05:42:48.987Z,8.41
2023-03-25T05:45:18.518Z,8.38
2023-03-25T05:47:47.180Z,8.40
2023-03-25T05:50:15.531Z,8.36
2023-03-25T05:52:43.625Z,8.42
2023-03-25T05:55:14.290Z,8.51
2023-03-25T05:57:42.196Z,8.46
2023-03-25T06:00:12.860Z,8.49
2023-03-25T06:02:43.311Z,8.50
2023-03-25T06:05:14.001Z,8.45
2023-03-25T06:07:42.945Z,8.44
2023-03-25T06:10:11.963Z,8.52
2023-03-25T06:12:40.288Z,8.47
2023-03-25T06:15:10.129Z,8.48
2023-03-25T06:17:39.442Z,8.50
2023-03-25T06:20:12.627Z,8.52
2023-03-25T06:22:42.859Z,8.52
2023-03-25T06:25:11.655Z,8.54
2023-03-25T06:27:40.741Z,8.59
2023-03-25T06:30:10.663Z,8.60
2023-03-25T06:32:39.107Z,8.55
2023-03-25T06:35:10.641Z,8.54
2023-03-25T06:37:39.293Z,8.47
2023-03-25T06:40:08.532Z,8.38
2023-03-25T06:42:36.503Z,8.48
2023-03-25T06:45:05.181Z,8.52
2023-03-25T06:47:33.165Z,8.48
2023-03-25T06:50:01.114Z,8.49
2023-03-25T06:52:30.432Z,8.55
2023-03-25T06:54:58.341Z,8.56
2023-03-25T06:57:26.240Z,8.62
2023-03-25T06:59:54.160Z,8.63
2023-03-25T07:02:22.075Z,8.70
2023-03-25T07:04:50.020Z,8.72
2023-03-25T07:07:17.972Z,8.82
2023-03-25T07:09:47.211Z,8.85
2023-03-25T07:12:15.672Z,8.88
2023-03-25T07:14:44.429Z,8.91
2023-03-25T07:17:12.388Z,8.88
2023-03-25T07:19:40.265Z,8.90
2023-03-25T07:22:08.176Z,8.92
2023-03-25T07:24:36.112Z,8.98
2023-03-25T07:27:05.573Z,8.97
2023-03-25T07:29:33.523Z,9.02
2023-03-25T07:32:01.423Z,9.03
2023-03-25T07:34:29.354Z,9.07
2023-03-25T07:36:57.261Z,9.17
2023-03-25T07:39:25.653Z,9.09
2023-03-25T07:41:53.572Z,9.13
2023-03-25T07:44:22.942Z,9.13
2023-03-25T07:46:51.017Z,9.17
2023-03-25T07:49:19.014Z,9.04
2023-03-25T07:51:47.137Z,8.94
2023-03-25T07:54:15.031Z,9.10
2023-03-25T07:56:42.994Z,9.20
2023-03-25T07:59:10.931Z,9.40
2023-03-25T08:01:40.491Z,9.52
2023-03-25T08:04:08.458Z,9.44
2023-03-25T08:06:36.337Z,9.40
2023-03-25T08:09:04.380Z,9.49
2023-03-25T08:11:33.910Z,9.38
2023-03-25T08:14:02.475Z,9.47
2023-03-25T08:16:30.439Z,9.35
2023-03-25T08:18:59.803Z,9.42
2023-03-25T08:21:27.989Z,9.27
2023-03-25T08:23:58.749Z,9.11
2023-03-25T08:26:27.046Z,9.17
2023-03-25T08:28:57.881Z,9.01
2023-03-25T08:31:26.611Z,8.98
2023-03-25T08:33:54.576Z,8.80
2023-03-25T08:36:26.650Z,8.78
2023-03-25T08:38:54.723Z,8.82
2023-03-25T08:41:22.796Z,8.84
2023-03-25T08:43:51.252Z,8.94
2023-03-25T08:46:19.221Z,8.98
2023-03-25T08:48:50.099Z,8.76
2023-03-25T08:51:18.398Z,8.89
2023-03-25T08:53:49.587Z,8.42
2023-03-25T08:56:17.800Z,8.42
2023-03-25T08:58:45.700Z,8.41
2023-03-25T09:01:13.930Z,8.43
2023-03-25T09:03:42.292Z,8.51
2023-03-25T09:06:10.802Z,8.43
2023-03-25T09:08:38.772Z,8.52
2023-03-25T09:11:08.452Z,8.48
2023-03-25T09:13:36.410Z,8.49
2023-03-25T09:16:04.518Z,8.40
2023-03-25T09:18:33.162Z,8.36
2023-03-25T09:21:01.385Z,8.47
2023-03-25T09:23:29.533Z,8.43
2023-03-25T09:26:01.367Z,8.43
2023-03-25T09:28:31.172Z,8.72
2023-03-25T09:30:59.239Z,8.78
2023-03-25T09:33:27.713Z,8.82
2023-03-25T09:35:55.931Z,8.63
2023-03-25T09:38:23.894Z,8.80
2023-03-25T09:40:51.837Z,8.71
2023-03-25T09:43:30.729Z,8.73
2023-03-25T09:46:19.578Z,8.81
2023-03-25T09:48:48.653Z,8.96
2023-03-25T09:51:20.488Z,9.07
2023-03-25T09:53:51.890Z,9.50
2023-03-25T09:56:22.848Z,9.71
2023-03-25T09:58:53.753Z,9.96
2023-03-25T10:01:33.171Z,10.26
2023-03-25T10:04:12.327Z,10.36
2023-03-25T10:06:43.808Z,9.97
2023-03-25T10:09:30.778Z,10.39
2023-03-25T10:12:02.559Z,10.56
2023-03-25T10:14:34.792Z,10.49
2023-03-25T10:17:12.636Z,10.36
2023-03-25T10:19:51.224Z,10.38
2023-03-25T10:22:22.435Z,10.85
2023-03-25T10:24:53.334Z,10.67
2023-03-25T10:27:24.227Z,10.39
2023-03-25T10:29:55.828Z,10.23
2023-03-25T10:32:31.474Z,10.29
2023-03-25T10:35:00.939Z,10.11
2023-03-25T10:37:32.688Z,9.94
2023-03-25T10:40:12.328Z,9.70
2023-03-25T10:42:42.364Z,9.57
2023-03-25T10:45:14.120Z,9.44
2023-03-25T10:47:42.855Z,9.35
2023-03-25T10:50:16.443Z,9.08
2023-03-25T10:52:44.963Z,9.25
2023-03-25T10:55:25.385Z,9.09
2023-03-25T10:57:53.980Z,9.01
2023-03-25T11:00:26.570Z,9.27
2023-03-25T11:02:56.216Z,9.11
2023-03-25T11:05:27.984Z,9.20
2023-03-25T11:07:57.699Z,9.51
2023-03-25T11:10:27.220Z,9.89
2023-03-25T11:12:58.760Z,9.71
2023-03-25T11:15:32.257Z,9.53
2023-03-25T11:18:02.082Z,9.38
2023-03-25T11:20:33.055Z,9.26
2023-03-25T11:23:07.239Z,9.71
2023-03-25T11:25:40.767Z,9.74
2023-03-25T11:28:17.143Z,9.63
2023-03-25T11:31:09.845Z,9.49
2023-03-25T11:33:38.391Z,9.69
2023-03-25T11:36:24.444Z,9.57
2023-03-25T11:38:55.924Z,9.73
2023-03-25T11:41:24.197Z,10.10
2023-03-25T11:43:52.148Z,10.11
2023-03-25T11:46:22.247Z,9.62
2023-03-25T11:48:51.158Z,9.53
2023-03-25T11:51:23.978Z,9.76
2023-03-25T11:53:57.940Z,10.11
2023-03-25T11:56:32.280Z,9.98
2023-03-25T11:59:02.538Z,10.20
2023-03-25T12:01:43.303Z,10.45
2023-03-25T12:04:17.121Z,10.52
2023-03-25T12:06:57.355Z,10.67
2023-03-25T12:09:29.064Z,10.69
2023-03-25T12:12:23.190Z,10.78
2023-03-25T12:15:00.178Z,10.54
2023-03-25T12:17:37.838Z,10.33
2023-03-25T12:20:15.315Z,10.14
2023-03-25T12:22:55.661Z,10.11
2023-03-25T12:25:28.447Z,10.14
2023-03-25T12:28:19.564Z,9.93
2023-03-25T12:30:55.210Z,10.09
2023-03-25T12:33:33.272Z,10.30
2023-03-25T12:36:16.467Z,10.37
2023-03-25T12:38:51.371Z,10.74
2023-03-25T12:41:23.310Z,10.64
2023-03-25T12:44:01.384Z,10.21
2023-03-25T12:46:42.099Z,9.87
2023-03-25T12:49:22.185Z,10.07
2023-03-25T12:51:57.035Z,10.19
2023-03-25T12:54:33.479Z,10.02
2023-03-25T12:57:08.629Z,10.04
2023-03-25T13:00:07.975Z,10.05
2023-03-25T13:03:03.241Z,9.73
2023-03-25T13:05:38.992Z,9.56
2023-03-25T13:08:10.588Z,9.86
2023-03-25T13:10:41.331Z,9.27
2023-03-25T13:13:13.319Z,9.44
2023-03-25T13:15:44.570Z,9.72
2023-03-25T13:18:15.487Z,9.80
2023-03-25T13:20:49.786Z,9.74
2023-03-25T13:23:22.026Z,9.87
2023-03-25T13:25:53.236Z,9.82
2023-03-25T13:28:25.582Z,9.74
2023-03-25T13:30:54.256Z,9.71
2023-03-25T13:33:26.160Z,9.73
2023-03-25T13:35:57.802Z,10.00
2023-03-25T13:38:30.007Z,10.01
2023-03-25T13:41:09.124Z,10.08
2023-03-25T13:43:41.394Z,10.13
2023-03-25T13:46:10.988Z,10.36
2023-03-25T13:48:41.906Z,10.31
2023-03-25T13:51:11.470Z,10.22
2023-03-25T13:56:46.582Z,10.07
2023-03-25T13:59:41.635Z,10.06
2023-03-25T14:02:23.758Z,10.15
2023-03-25T14:05:38.163Z,10.11
2023-03-25T14:08:27.203Z,9.99
2023-03-25T14:10:56.039Z,9.87
2023-03-25T14:13:26.660Z,9.77
2023-03-25T14:15:59.288Z,9.97
2023-03-25T14:18:32.061Z,9.75
2023-03-25T14:21:00.503Z,9.75
2023-03-25T14:23:32.174Z,10.27
2023-03-25T14:26:01.191Z,10.80
2023-03-25T14:28:41.044Z,10.90
2023-03-25T14:31:18.068Z,10.78
2023-03-25T14:34:25.676Z,10.53
2023-03-25T14:37:30.627Z,10.18
2023-03-25T14:40:02.187Z,10.43
2023-03-25T14:42:31.833Z,10.11
2023-03-25T14:45:48.323Z,10.04
2023-03-25T14:48:31.507Z,9.97
2023-03-25T14:51:23.138Z,9.65
2023-03-25T14:53:54.804Z,9.30
2023-03-25T14:56:26.655Z,9.39
2023-03-25T14:58:56.365Z,9.53
2023-03-25T15:01:30.257Z,9.41
2023-03-25T15:04:11.791Z,9.46
2023-03-25T15:06:40.067Z,9.04
2023-03-25T15:09:11.825Z,9.57
2023-03-25T15:11:42.880Z,10.46
2023-03-25T15:14:13.337Z,10.54
2023-03-25T15:17:01.643Z,10.61
2023-03-25T15:19:29.636Z,10.23
2023-03-25T15:22:20.318Z,10.00
2023-03-25T15:25:07.353Z,10.27
2023-03-25T15:28:01.976Z,10.14
2023-03-25T15:30:53.502Z,9.84
2023-03-25T15:33:41.540Z,9.59
2023-03-25T15:36:36.297Z,9.98
2023-03-25T15:39:16.524Z,10.02
2023-03-25T15:42:01.692Z,9.75
2023-03-25T15:44:59.734Z,9.42
2023-03-25T15:47:49.474Z,9.21
2023-03-25T15:50:32.831Z,9.28
2023-03-25T15:53:44.458Z,9.23
2023-03-25T15:56:13.958Z,8.99
2023-03-25T15:58:45.844Z,8.91
2023-03-25T16:01:19.661Z,8.93
2023-03-25T16:03:58.947Z,8.96
2023-03-25T16:06:27.904Z,9.08
2023-03-25T16:08:59.521Z,9.16
2023-03-25T16:11:28.838Z,9.36
2023-03-25T16:14:08.404Z,7.87
2023-03-25T16:16:39.971Z,8.28
2023-03-25T16:19:11.796Z,8.44
2023-03-25T16:21:39.999Z,8.29
2023-03-25T16:24:09.204Z,7.75
2023-03-25T16:26:39.393Z,7.82
2023-03-25T16:29:20.416Z,7.90
2023-03-25T16:31:57.968Z,8.22
2023-03-25T16:34:26.796Z,8.80
2023-03-25T16:36:55.511Z,8.48
2023-03-25T16:39:25.221Z,7.88
2023-03-25T16:42:01.114Z,7.84
2023-03-25T16:44:29.239Z,8.17
2023-03-25T16:46:58.677Z,7.93
2023-03-25T16:49:28.495Z,8.16
2023-03-25T16:51:56.838Z,7.67
2023-03-25T16:54:37.808Z,7.91
2023-03-25T16:57:08.277Z,8.02
2023-03-25T16:59:37.994Z,8.07
2023-03-25T17:02:26.011Z,8.01
2023-03-25T17:04:56.627Z,8.01
2023-03-25T17:07:27.837Z,8.07
2023-03-25T17:09:58.704Z,8.00
2023-03-25T17:12:27.957Z,7.95
2023-03-25T17:14:59.788Z,8.05
2023-03-25T17:17:35.923Z,8.14
2023-03-25T17:20:08.579Z,8.31
2023-03-25T17:22:38.598Z,8.27
2023-03-25T17:25:27.432Z,8.25
2023-03-25T17:27:56.933Z,8.17
2023-03-25T17:30:40.655Z,8.05
2023-03-25T17:33:15.627Z,8.16
2023-03-25T17:35:45.168Z,8.29
2023-03-25T17:38:19.674Z,8.17
2023-03-25T17:40:47.736Z,8.10
2023-03-25T17:43:20.866Z,8.04
2023-03-25T17:45:48.876Z,8.02
2023-03-25T17:48:19.098Z,8.17
2023-03-25T17:50:54.315Z,8.01
2023-03-25T17:53:38.952Z,8.03
2023-03-25T17:56:17.038Z,8.18
2023-03-25T17:58:45.458Z,8.17
2023-03-25T18:01:13.742Z,8.02
2023-03-25T18:03:43.027Z,8.10
2023-03-25T18:06:15.894Z,7.95
2023-03-25T18:08:43.872Z,7.96
2023-03-25T18:11:12.410Z,8.03
2023-03-25T18:13:45.800Z,8.03
2023-03-25T18:16:13.686Z,7.92
2023-03-25T18:18:43.233Z,7.95
2023-03-25T18:21:12.346Z,7.93
2023-03-25T18:23:40.316Z,7.94
2023-03-25T18:26:12.805Z,7.99
2023-03-25T18:28:42.968Z,8.05
2023-03-25T18:31:13.773Z,8.04
2023-03-25T18:33:43.204Z,8.07
2023-03-25T18:36:11.560Z,7.95
2023-03-25T18:38:39.928Z,8.11
2023-03-25T18:41:08.829Z,7.96
2023-03-25T18:43:36.742Z,7.94
2023-03-25T18:46:05.090Z,7.93
2023-03-25T18:48:33.054Z,7.89
2023-03-25T18:51:02.521Z,7.88
2023-03-25T18:53:31.214Z,7.81
2023-03-25T18:56:00.935Z,7.87
2023-03-25T18:58:31.077Z,7.87
2023-03-25T19:00:59.487Z,7.95
2023-03-25T19:03:31.746Z,7.81
2023-03-25T19:06:00.370Z,7.81
2023-03-25T19:08:29.912Z,7.87
2023-03-25T19:11:05.021Z,8.00
2023-03-25T19:13:40.556Z,8.00
2023-03-25T19:16:09.146Z,8.00
2023-03-25T19:18:37.088Z,8.00
2023-03-25T19:21:05.765Z,7.98
2023-03-25T19:23:36.453Z,8.01
2023-03-25T19:26:04.573Z,8.02
2023-03-25T19:28:32.492Z,8.05
2023-03-25T19:31:01.596Z,7.96
2023-03-25T19:33:31.210Z,7.96
2023-03-25T19:36:01.697Z,7.91
2023-03-25T19:38:30.153Z,7.94
2023-03-25T19:41:08.306Z,7.96
2023-03-25T19:43:36.649Z,8.00
2023-03-25T19:46:07.053Z,8.00
2023-03-25T19:48:35.600Z,7.90
2023-03-25T19:51:04.112Z,7.97
2023-03-25T19:53:32.108Z,7.81
2023-03-25T19:56:03.175Z,7.85
2023-03-25T19:58:33.413Z,7.87
2023-03-25T20:01:01.576Z,7.96
2023-03-25T20:03:31.392Z,7.94
2023-03-25T20:06:01.006Z,7.86
2023-03-25T20:08:29.737Z,7.91
2023-03-25T20:10:57.698Z,7.88
2023-03-25T20:13:25.812Z,7.84
2023-03-25T20:15:55.461Z,7.87
2023-03-25T20:18:23.693Z,7.89
2023-03-25T20:20:51.638Z,7.90
2023-03-25T20:23:19.535Z,7.86
2023-03-25T20:25:48.646Z,7.87
2023-03-25T20:28:18.426Z,7.91
2023-03-25T20:30:46.405Z,7.83
2023-03-25T20:33:15.781Z,7.84
2023-03-25T20:35:44.555Z,7.87
2023-03-25T20:38:14.260Z,7.88
2023-03-25T20:40:45.059Z,7.72
2023-03-25T20:43:14.833Z,7.68
2023-03-25T20:45:43.520Z,7.70
2023-03-25T20:48:11.574Z,7.54
2023-03-25T20:50:41.060Z,7.43
2023-03-25T20:53:09.208Z,7.53
2023-03-25T20:55:37.477Z,7.54
2023-03-25T20:58:05.928Z,7.61
2023-03-25T21:00:34.328Z,7.71
2023-03-25T21:03:03.169Z,7.72
2023-03-25T21:05:31.316Z,7.78
2023-03-25T21:08:00.679Z,7.73
2023-03-25T21:10:28.619Z,7.76
2023-03-25T21:12:56.572Z,7.71
2023-03-25T21:15:24.498Z,7.81
2023-03-25T21:17:52.394Z,7.72
2023-03-25T21:20:24.073Z,7.75
2023-03-25T21:22:52.875Z,7.75
2023-03-25T21:25:22.181Z,7.76
2023-03-25T21:27:50.180Z,7.73
2023-03-25T21:30:18.424Z,7.82
2023-03-25T21:32:46.332Z,7.85
2023-03-25T21:35:14.755Z,7.76
2023-03-25T21:37:42.695Z,7.74
2023-03-25T21:40:12.584Z,7.74
2023-03-25T21:42:42.264Z,7.67
2023-03-25T21:45:12.160Z,7.80
2023-03-25T21:47:41.388Z,7.81
2023-03-25T21:50:11.538Z,7.76
2023-03-25T21:52:43.116Z,7.74
2023-03-25T21:55:12.616Z,7.74
2023-03-25T21:57:44.553Z,7.73
2023-03-25T22:00:16.488Z,7.73
2023-03-25T22:02:45.569Z,7.77
2023-03-25T22:05:14.343Z,7.78
2023-03-25T22:07:42.566Z,7.75
2023-03-25T22:10:11.692Z,7.75
2023-03-25T22:12:41.246Z,7.74
2023-03-25T22:15:10.970Z,7.78
2023-03-25T22:17:38.920Z,7.73
2023-03-25T22:20:08.912Z,7.79
2023-03-25T22:22:36.912Z,7.74
2023-03-25T22:25:05.176Z,7.74
2023-03-25T22:27:33.098Z,7.80
2023-03-25T22:30:02.743Z,7.77
2023-03-25T22:32:30.718Z,7.83
2023-03-25T22:34:58.644Z,7.71
2023-03-25T22:37:26.579Z,7.72
2023-03-25T22:39:54.496Z,7.72
2023-03-25T22:42:22.441Z,7.73
2023-03-25T22:44:50.320Z,7.70
2023-03-25T22:47:19.764Z,7.69
2023-03-25T22:49:47.639Z,7.71
2023-03-25T22:52:15.523Z,7.77
2023-03-25T22:54:43.528Z,7.73
2023-03-25T22:57:11.536Z,7.67
2023-03-25T22:59:39.442Z,7.71
2023-03-25T23:02:07.784Z,7.78
2023-03-25T23:04:37.972Z,7.78
2023-03-25T23:07:08.516Z,7.77
2023-03-25T23:09:42.358Z,7.73
2023-03-25T23:12:11.650Z,7.76
2023-03-25T23:14:40.659Z,7.72
2023-03-25T23:17:10.343Z,7.76
2023-03-25T23:19:39.673Z,7.69
2023-03-25T23:22:07.640Z,7.70
2023-03-25T23:24:37.031Z,7.68
2023-03-25T23:27:05.739Z,7.70
2023-03-25T23:29:35.869Z,7.70
2023-03-25T23:32:03.887Z,7.67
2023-03-25T23:34:33.940Z,7.70
2023-03-25T23:37:03.473Z,7.64
2023-03-25T23:39:31.844Z,7.64
2023-03-25T23:41:59.779Z,7.62
2023-03-25T23:44:27.690Z,7.65
2023-03-25T23:46:55.859Z,7.67
2023-03-25T23:49:23.961Z,7.61
2023-03-25T23:51:52.117Z,7.59
2023-03-25T23:54:21.421Z,7.53
2023-03-25T23:56:49.323Z,7.51
2023-03-25T23:59:17.227Z,7.52
